createdAt,value
2023-02-19T00:01:26.914Z,0.98
2023-02-19T00:04:02.794Z,0.90
2023-02-19T00:06:32.141Z,0.80
2023-02-19T00:08:58.922Z,0.77
2023-02-19T00:11:29.618Z,0.73
2023-02-19T00:13:57.906Z,0.60
2023-02-19T00:16:28.278Z,0.73
2023-02-19T00:18:56.643Z,0.93
2023-02-19T00:21:24.106Z,0.82
2023-02-19T00:23:52.843Z,0.70
2023-02-19T00:26:19.963Z,0.68
2023-02-19T00:28:47.892Z,0.70
2023-02-19T00:31:20.606Z,0.80
2023-02-19T00:33:48.662Z,0.60
2023-02-19T00:36:16.038Z,0.75
2023-02-19T00:38:43.841Z,0.82
2023-02-19T00:41:21.451Z,0.90
2023-02-19T00:43:59.172Z,0.70
2023-02-19T00:46:27.850Z,0.60
2023-02-19T00:48:55.080Z,0.60
2023-02-19T00:51:23.297Z,0.60
2023-02-19T00:53:49.861Z,0.82
2023-02-19T00:56:16.396Z,0.70
2023-02-19T00:58:43.248Z,0.70
2023-02-19T01:01:11.378Z,0.70
2023-02-19T01:03:39.137Z,0.70
2023-02-19T01:06:07.286Z,0.70
2023-02-19T01:08:34.327Z,0.80
2023-02-19T01:11:02.632Z,0.80
2023-02-19T01:13:29.559Z,1.38
2023-02-19T01:16:06.762Z,1.30
2023-02-19T01:18:34.829Z,1.30
2023-02-19T01:21:07.243Z,1.38
2023-02-19T01:23:34.430Z,1.40
2023-02-19T01:26:05.018Z,1.50
2023-02-19T01:28:32.060Z,1.67
2023-02-19T01:31:07.037Z,2.28
2023-02-19T01:33:34.844Z,1.85
2023-02-19T01:36:04.376Z,2.42
2023-02-19T01:38:30.768Z,1.95
2023-02-19T01:40:59.681Z,1.90
2023-02-19T01:43:26.821Z,1.80
2023-02-19T01:45:53.999Z,1.90
2023-02-19T01:48:25.593Z,2.25
2023-02-19T01:50:59.626Z,2.00
2023-02-19T01:53:29.989Z,2.03
2023-02-19T01:55:59.806Z,2.10
2023-02-19T01:58:31.283Z,2.38
2023-02-19T02:00:59.242Z,2.30
2023-02-19T02:03:25.790Z,2.97
2023-02-19T02:06:33.042Z,2.47
2023-02-19T02:09:19.252Z,2.70
2023-02-19T02:11:50.209Z,2.60
2023-02-19T02:14:19.631Z,2.22
2023-02-19T02:17:20.183Z,2.75
2023-02-19T02:20:12.116Z,2.45
2023-02-19T02:22:52.290Z,2.17
2023-02-19T02:25:49.670Z,2.10
2023-02-19T02:28:34.833Z,2.00
2023-02-19T02:31:10.052Z,1.27
2023-02-19T02:34:07.548Z,1.30
2023-02-19T02:36:38.298Z,1.27
2023-02-19T02:39:10.178Z,1.35
2023-02-19T02:42:11.773Z,1.30
2023-02-19T02:44:40.068Z,1.27
2023-02-19T02:47:29.684Z,1.25
2023-02-19T02:50:08.140Z,1.33
2023-02-19T02:52:57.805Z,1.20
2023-02-19T02:55:25.513Z,1.20
2023-02-19T02:57:52.514Z,1.23
2023-02-19T03:00:19.115Z,1.50
2023-02-19T03:02:45.662Z,1.23
2023-02-19T03:05:44.169Z,1.38
2023-02-19T03:08:18.933Z,1.40
2023-02-19T03:11:21.083Z,1.90
2023-02-19T03:14:08.193Z,1.60
2023-02-19T03:16:56.225Z,1.50
2023-02-19T03:19:25.973Z,1.65
2023-02-19T03:22:15.743Z,1.90
2023-02-19T03:25:08.053Z,1.85
2023-02-19T03:27:36.112Z,2.22
2023-02-19T03:30:08.799Z,2.78
2023-02-19T03:33:13.861Z,2.20
2023-02-19T03:35:49.038Z,2.40
2023-02-19T03:41:10.287Z,2.30
2023-02-19T03:43:53.765Z,3.30
2023-02-19T03:46:38.905Z,3.95
2023-02-19T03:49:28.949Z,3.10
2023-02-19T03:52:33.674Z,3.45
2023-02-19T03:55:06.073Z,3.75
2023-02-19T03:57:51.226Z,4.13
2023-02-19T04:00:27.517Z,4.40
2023-02-19T04:03:00.649Z,3.92
2023-02-19T04:05:32.398Z,4.30
2023-02-19T04:08:06.248Z,5.30
2023-02-19T04:10:33.943Z,5.35
2023-02-19T04:13:06.782Z,5.45
2023-02-19T04:15:36.181Z,5.20
2023-02-19T04:18:07.674Z,4.72
2023-02-19T04:20:42.298Z,6.30
2023-02-19T04:23:09.297Z,5.75
2023-02-19T04:25:38.985Z,6.03
2023-02-19T04:28:05.906Z,6.32
2023-02-19T04:30:32.490Z,5.70
2023-02-19T04:32:59.097Z,6.30
2023-02-19T04:35:25.587Z,7.32
2023-02-19T04:37:52.661Z,6.28
2023-02-19T04:40:19.547Z,7.15
2023-02-19T04:42:45.958Z,6.55
2023-02-19T04:45:12.474Z,6.20
2023-02-19T04:47:38.899Z,8.02
2023-02-19T04:50:05.771Z,7.22
2023-02-19T04:52:33.312Z,6.88
2023-02-19T04:54:59.727Z,7.07
2023-02-19T04:57:26.701Z,7.97
2023-02-19T04:59:53.186Z,7.30
2023-02-19T05:02:19.989Z,7.72
2023-02-19T05:04:46.468Z,7.00
2023-02-19T05:07:13.041Z,7.80
2023-02-19T05:09:39.445Z,6.05
2023-02-19T05:12:06.581Z,6.47
2023-02-19T05:14:32.955Z,7.50
2023-02-19T05:16:59.889Z,7.05
2023-02-19T05:19:26.263Z,6.38
2023-02-19T05:21:52.755Z,6.85
2023-02-19T05:24:19.269Z,6.97
2023-02-19T05:26:46.320Z,6.78
2023-02-19T05:29:12.697Z,7.40
2023-02-19T05:31:39.627Z,7.50
2023-02-19T05:34:06.297Z,6.82
2023-02-19T05:36:32.726Z,6.80
2023-02-19T05:38:59.690Z,7.47
2023-02-19T05:41:29.389Z,7.93
2023-02-19T05:43:57.249Z,8.18
2023-02-19T05:46:26.582Z,7.93
2023-02-19T05:48:54.192Z,7.38
2023-02-19T05:51:23.251Z,9.13
2023-02-19T05:53:50.703Z,8.40
2023-02-19T05:56:41.492Z,8.57
2023-02-19T05:59:15.931Z,8.20
2023-02-19T06:01:42.768Z,8.18
2023-02-19T06:04:11.323Z,8.32
2023-02-19T06:06:38.605Z,8.48
2023-02-19T06:09:06.750Z,7.75
2023-02-19T06:11:33.274Z,8.45
2023-02-19T06:13:59.930Z,7.53
2023-02-19T06:16:26.870Z,8.40
2023-02-19T06:18:53.420Z,8.10
2023-02-19T06:21:20.453Z,9.05
2023-02-19T06:23:47.192Z,8.90
2023-02-19T06:26:22.759Z,9.65
2023-02-19T06:28:50.946Z,9.25
2023-02-19T06:31:19.262Z,9.40
2023-02-19T06:33:46.630Z,10.07
2023-02-19T06:36:16.432Z,9.43
2023-02-19T06:38:43.982Z,9.13
2023-02-19T06:41:12.351Z,9.60
2023-02-19T06:43:40.664Z,9.55
2023-02-19T06:46:07.823Z,10.75
2023-02-19T06:48:35.711Z,9.45
2023-02-19T06:51:02.868Z,9.85
2023-02-19T06:53:29.707Z,9.15
2023-02-19T06:56:05.388Z,9.35
2023-02-19T06:58:33.394Z,9.73
2023-02-19T07:01:00.087Z,10.05
2023-02-19T07:03:26.736Z,9.35
2023-02-19T07:05:53.541Z,10.43
2023-02-19T07:08:20.241Z,9.80
2023-02-19T07:10:55.433Z,10.30
2023-02-19T07:15:49.965Z,10.32
2023-02-19T07:18:17.531Z,9.80
2023-02-19T07:20:44.091Z,11.02
2023-02-19T07:23:10.520Z,11.07
2023-02-19T07:25:37.979Z,10.07
2023-02-19T07:28:04.741Z,10.25
2023-02-19T07:30:31.342Z,9.68
2023-02-19T07:32:57.939Z,9.50
2023-02-19T07:35:24.429Z,9.07
2023-02-19T07:37:51.052Z,10.15
2023-02-19T07:40:17.690Z,9.90
2023-02-19T07:42:44.221Z,9.35
2023-02-19T07:45:10.635Z,9.65
2023-02-19T07:47:37.265Z,10.07
2023-02-19T07:50:04.120Z,9.50
2023-02-19T07:52:30.737Z,9.23
2023-02-19T07:54:57.133Z,9.27
2023-02-19T07:57:23.543Z,9.05
2023-02-19T07:59:50.058Z,8.55
2023-02-19T08:02:37.211Z,9.80
2023-02-19T08:05:05.760Z,9.15
2023-02-19T08:07:34.241Z,9.27
2023-02-19T08:10:19.670Z,8.95
2023-02-19T08:13:04.709Z,9.20
2023-02-19T08:15:32.952Z,9.13
2023-02-19T08:17:59.501Z,8.57
2023-02-19T08:20:25.987Z,8.55
2023-02-19T08:22:52.969Z,9.98
2023-02-19T08:25:19.388Z,9.00
2023-02-19T08:27:46.039Z,10.38
2023-02-19T08:30:13.325Z,10.32
2023-02-19T08:32:39.735Z,10.80
2023-02-19T08:35:06.311Z,11.55
2023-02-19T08:37:32.843Z,9.20
2023-02-19T08:39:59.255Z,10.13
2023-02-19T08:42:30.787Z,11.65
2023-02-19T08:44:57.245Z,12.73
2023-02-19T08:47:23.952Z,11.82
2023-02-19T08:49:50.336Z,10.85
2023-02-19T08:52:16.834Z,12.05
2023-02-19T08:54:43.245Z,12.73
2023-02-19T08:57:10.109Z,12.38
2023-02-19T08:59:36.573Z,13.00
2023-02-19T09:02:03.555Z,11.77
2023-02-19T09:04:30.185Z,12.27
2023-02-19T09:06:58.044Z,11.70
2023-02-19T09:09:24.467Z,11.93
2023-02-19T09:11:51.114Z,11.60
2023-02-19T09:14:17.618Z,11.50
2023-02-19T09:16:44.046Z,10.95
2023-02-19T09:19:10.967Z,11.77
2023-02-19T09:21:37.365Z,11.88
2023-02-19T09:24:04.449Z,11.70
2023-02-19T09:26:30.869Z,12.30
2023-02-19T09:28:57.288Z,11.82
2023-02-19T09:31:24.563Z,10.82
2023-02-19T09:33:51.284Z,10.70
2023-02-19T09:36:18.730Z,10.48
2023-02-19T09:38:45.569Z,9.68
2023-02-19T09:41:23.619Z,9.45
2023-02-19T09:43:50.525Z,10.10
2023-02-19T09:46:26.185Z,9.73
2023-02-19T09:48:55.810Z,9.48
2023-02-19T09:51:25.165Z,10.45
2023-02-19T09:53:53.920Z,10.13
2023-02-19T09:56:20.370Z,10.05
2023-02-19T09:58:50.774Z,9.27
2023-02-19T10:01:18.321Z,9.35
2023-02-19T10:03:48.298Z,9.68
2023-02-19T10:06:27.100Z,8.95
2023-02-19T10:08:59.993Z,8.88
2023-02-19T10:11:28.378Z,9.45
2023-02-19T10:14:02.132Z,7.85
2023-02-19T10:16:29.522Z,7.63
2023-02-19T10:18:56.597Z,8.02
2023-02-19T10:21:26.188Z,7.97
2023-02-19T10:23:57.317Z,7.78
2023-02-19T10:26:24.583Z,8.23
2023-02-19T10:28:51.165Z,7.40
2023-02-19T10:31:21.682Z,8.10
2023-02-19T10:33:54.054Z,7.35
2023-02-19T10:36:32.822Z,7.07
2023-02-19T10:39:01.804Z,7.95
2023-02-19T10:41:29.112Z,7.15
2023-02-19T10:44:16.246Z,7.38
2023-02-19T10:46:48.204Z,6.50
2023-02-19T10:49:40.100Z,7.40
2023-02-19T10:52:23.033Z,7.25
2023-02-19T10:55:09.472Z,7.75
2023-02-19T10:57:37.697Z,8.02
2023-02-19T11:00:16.630Z,7.57
2023-02-19T11:02:44.837Z,8.50
2023-02-19T11:05:17.297Z,7.72
2023-02-19T11:07:56.633Z,8.68
2023-02-19T11:10:25.990Z,8.27
2023-02-19T11:12:55.820Z,8.15
2023-02-19T11:15:27.547Z,8.10
2023-02-19T11:17:56.470Z,9.63
2023-02-19T11:20:23.764Z,8.85
2023-02-19T11:23:04.878Z,8.45
2023-02-19T11:25:31.488Z,8.85
2023-02-19T11:27:58.235Z,8.77
2023-02-19T11:30:30.505Z,8.23
2023-02-19T11:33:16.007Z,8.40
2023-02-19T11:35:44.192Z,8.40
2023-02-19T11:38:13.500Z,7.93
2023-02-19T11:41:04.832Z,7.68
2023-02-19T11:43:34.263Z,8.45
2023-02-19T11:46:17.780Z,8.18
2023-02-19T11:49:06.101Z,7.88
2023-02-19T11:51:52.319Z,7.47
2023-02-19T11:54:38.886Z,8.63
2023-02-19T11:57:15.470Z,8.70
2023-02-19T11:59:55.723Z,9.50
2023-02-19T12:02:58.385Z,8.90
2023-02-19T12:05:40.090Z,8.38
2023-02-19T12:08:38.747Z,7.90
2023-02-19T12:11:25.158Z,8.18
2023-02-19T12:14:13.599Z,7.13
2023-02-19T12:17:17.204Z,7.82
2023-02-19T12:20:19.330Z,7.18
2023-02-19T12:22:51.774Z,7.40
2023-02-19T12:25:23.789Z,7.50
2023-02-19T12:28:07.237Z,7.68
2023-02-19T12:31:03.162Z,7.75
2023-02-19T12:36:20.408Z,7.50
2023-02-19T12:39:02.836Z,6.78
2023-02-19T12:41:57.110Z,7.25
2023-02-19T12:44:48.400Z,6.85
2023-02-19T12:47:34.019Z,6.18
2023-02-19T12:50:12.563Z,5.60
2023-02-19T12:52:43.056Z,5.15
2023-02-19T12:55:28.731Z,4.97
2023-02-19T12:57:59.082Z,4.80
2023-02-19T13:00:33.602Z,5.05
2023-02-19T13:03:12.242Z,5.03
2023-02-19T13:05:46.779Z,4.40
2023-02-19T13:08:23.308Z,5.53
2023-02-19T13:10:55.413Z,5.85
2023-02-19T13:13:31.807Z,5.53
2023-02-19T13:16:04.020Z,5.25
2023-02-19T13:18:38.201Z,5.07
2023-02-19T13:21:06.141Z,4.72
2023-02-19T13:23:56.931Z,4.65
2023-02-19T13:26:33.043Z,4.35
2023-02-19T13:29:27.656Z,4.18
2023-02-19T13:32:21.891Z,4.55
2023-02-19T13:35:12.740Z,4.10
2023-02-19T13:37:39.773Z,3.80
2023-02-19T13:40:26.703Z,4.63
2023-02-19T13:42:57.014Z,3.53
2023-02-19T13:45:31.791Z,4.18
2023-02-19T13:48:00.740Z,4.55
2023-02-19T13:50:28.994Z,4.22
2023-02-19T13:52:57.244Z,4.78
2023-02-19T13:55:51.919Z,5.22
2023-02-19T13:58:33.782Z,4.60
2023-02-19T14:01:02.109Z,4.68
2023-02-19T14:03:30.488Z,5.43
2023-02-19T14:05:59.124Z,4.15
2023-02-19T14:08:52.573Z,5.10
2023-02-19T14:11:39.099Z,4.38
2023-02-19T14:14:28.329Z,4.55
2023-02-19T14:17:09.937Z,4.72
2023-02-19T14:19:42.679Z,4.93
2023-02-19T14:22:45.020Z,4.70
2023-02-19T14:25:29.234Z,4.38
2023-02-19T14:28:17.184Z,5.05
2023-02-19T14:31:07.034Z,5.53
2023-02-19T14:33:36.169Z,4.65
2023-02-19T14:36:24.331Z,5.72
2023-02-19T14:38:55.002Z,5.93
2023-02-19T14:41:23.351Z,6.60
2023-02-19T14:43:54.089Z,5.07
2023-02-19T14:46:34.132Z,5.88
2023-02-19T14:49:11.374Z,5.32
2023-02-19T14:51:45.231Z,5.53
2023-02-19T14:54:20.887Z,4.85
2023-02-19T14:56:51.753Z,4.95
2023-02-19T14:59:27.163Z,5.68
2023-02-19T15:01:55.624Z,5.25
2023-02-19T15:04:25.318Z,4.90
2023-02-19T15:06:56.536Z,5.05
2023-02-19T15:09:32.927Z,5.18
2023-02-19T15:12:00.582Z,4.82
2023-02-19T15:14:30.579Z,5.90
2023-02-19T15:17:02.382Z,6.30
2023-02-19T15:19:35.005Z,5.78
2023-02-19T15:22:02.530Z,5.72
2023-02-19T15:24:29.797Z,5.32
2023-02-19T15:26:56.445Z,5.93
2023-02-19T15:29:26.510Z,5.05
2023-02-19T15:31:58.340Z,6.13
2023-02-19T15:34:27.368Z,5.78
2023-02-19T15:37:00.616Z,5.47
2023-02-19T15:39:48.703Z,6.07
2023-02-19T15:42:18.911Z,4.70
2023-02-19T15:45:16.446Z,5.35
2023-02-19T15:48:02.733Z,4.75
2023-02-19T15:50:31.940Z,5.15
2023-02-19T15:53:01.511Z,6.03
2023-02-19T15:55:38.910Z,5.97
2023-02-19T15:58:29.955Z,5.10
2023-02-19T16:01:27.809Z,6.53
2023-02-19T16:03:55.346Z,6.35
2023-02-19T16:06:24.542Z,6.15
2023-02-19T16:09:05.597Z,6.05
2023-02-19T16:11:38.347Z,6.78
2023-02-19T16:14:23.514Z,6.57
2023-02-19T16:16:54.997Z,6.45
2023-02-19T16:19:30.606Z,6.85
2023-02-19T16:21:58.643Z,6.95
2023-02-19T16:24:35.281Z,7.07
2023-02-19T16:27:02.667Z,6.75
2023-02-19T16:29:31.552Z,6.93
2023-02-19T16:32:01.800Z,6.82
2023-02-19T16:34:47.553Z,7.45
2023-02-19T16:37:56.288Z,7.70
2023-02-19T16:40:34.780Z,9.65
2023-02-19T16:43:24.788Z,9.40
2023-02-19T16:45:51.219Z,7.57
2023-02-19T16:48:21.274Z,7.70
2023-02-19T16:50:47.736Z,8.52
2023-02-19T16:53:20.600Z,8.10
2023-02-19T16:55:47.340Z,8.60
2023-02-19T16:58:14.253Z,7.57
2023-02-19T17:00:40.782Z,7.82
2023-02-19T17:03:13.989Z,7.38
2023-02-19T17:05:41.150Z,6.45
2023-02-19T17:08:34.281Z,7.40
2023-02-19T17:11:06.981Z,8.20
2023-02-19T17:13:33.883Z,7.57
2023-02-19T17:16:00.379Z,8.15
2023-02-19T17:18:28.092Z,6.93
2023-02-19T17:21:00.264Z,7.03
2023-02-19T17:23:26.885Z,7.60
2023-02-19T17:25:53.794Z,6.97
2023-02-19T17:28:20.235Z,7.05
2023-02-19T17:30:47.299Z,7.05
2023-02-19T17:33:13.855Z,6.68
2023-02-19T17:35:42.516Z,5.93
2023-02-19T17:38:11.547Z,7.05
2023-02-19T17:40:38.308Z,6.45
2023-02-19T17:43:05.928Z,7.25
2023-02-19T17:45:33.373Z,6.85
2023-02-19T17:48:00.835Z,7.63
2023-02-19T17:50:31.240Z,6.72
2023-02-19T17:52:58.517Z,7.35
2023-02-19T17:55:26.776Z,7.28
2023-02-19T17:57:53.520Z,8.18
2023-02-19T18:00:23.602Z,8.35
2023-02-19T18:02:50.637Z,8.30
2023-02-19T18:05:17.826Z,8.70
2023-02-19T18:07:45.567Z,8.13
2023-02-19T18:10:13.051Z,8.07
2023-02-19T18:12:40.449Z,9.18
2023-02-19T18:15:09.280Z,8.68
2023-02-19T18:17:36.302Z,9.38
2023-02-19T18:20:04.981Z,8.13
2023-02-19T18:22:32.729Z,8.82
2023-02-19T18:24:59.459Z,8.48
2023-02-19T18:27:26.162Z,9.23
2023-02-19T18:29:55.955Z,9.93
2023-02-19T18:32:24.531Z,9.13
2023-02-19T18:34:54.288Z,10.07
2023-02-19T18:37:21.896Z,9.93
2023-02-19T18:39:48.489Z,8.55
2023-02-19T18:42:15.264Z,8.77
2023-02-19T18:44:43.669Z,8.27
2023-02-19T18:47:11.450Z,8.60
2023-02-19T18:49:38.619Z,9.43
2023-02-19T18:52:05.932Z,8.73
2023-02-19T18:54:32.824Z,9.75
2023-02-19T18:57:03.692Z,10.05
2023-02-19T18:59:30.902Z,9.98
2023-02-19T19:01:57.733Z,8.93
2023-02-19T19:04:24.158Z,9.55
2023-02-19T19:06:51.832Z,9.10
2023-02-19T19:09:18.321Z,8.95
2023-02-19T19:11:46.566Z,8.60
2023-02-19T19:14:13.473Z,7.90
2023-02-19T19:16:40.535Z,6.47
2023-02-19T19:19:07.364Z,6.32
2023-02-19T19:21:33.790Z,5.78
2023-02-19T19:24:00.640Z,5.97
2023-02-19T19:26:27.074Z,5.97
2023-02-19T19:28:53.627Z,5.97
2023-02-19T19:31:21.277Z,6.22
2023-02-19T19:33:48.938Z,6.43
2023-02-19T19:36:20.202Z,5.35
2023-02-19T19:38:47.137Z,5.60
2023-02-19T19:41:18.336Z,5.85
2023-02-19T19:43:46.076Z,6.78
2023-02-19T19:46:16.486Z,6.43
2023-02-19T19:48:43.022Z,4.78
2023-02-19T19:51:09.644Z,4.50
2023-02-19T19:53:36.645Z,3.97
2023-02-19T19:56:03.394Z,3.78
2023-02-19T19:58:29.868Z,3.60
2023-02-19T20:00:56.891Z,3.90
2023-02-19T20:03:23.345Z,4.07
2023-02-19T20:05:52.684Z,3.70
2023-02-19T20:08:19.355Z,3.72
2023-02-19T20:10:46.126Z,3.38
2023-02-19T20:13:16.980Z,3.33
2023-02-19T20:15:43.705Z,3.60
2023-02-19T20:18:10.219Z,3.42
2023-02-19T20:20:36.707Z,3.60
2023-02-19T20:23:03.101Z,3.00
2023-02-19T20:25:29.896Z,3.13
2023-02-19T20:27:56.519Z,3.40
2023-02-19T20:30:25.330Z,2.95
2023-02-19T20:32:53.370Z,3.35
2023-02-19T20:35:20.721Z,3.17
2023-02-19T20:37:47.978Z,3.88
2023-02-19T20:40:17.792Z,3.67
2023-02-19T20:42:44.518Z,2.92
2023-02-19T20:45:11.060Z,3.17
2023-02-19T20:47:40.301Z,3.28
2023-02-19T20:50:07.371Z,3.13
2023-02-19T20:52:34.261Z,3.67
2023-02-19T20:55:01.108Z,4.00
2023-02-19T20:57:27.610Z,3.85
2023-02-19T20:59:54.419Z,4.40
2023-02-19T21:02:27.615Z,4.85
2023-02-19T21:04:54.288Z,4.15
2023-02-19T21:07:20.784Z,5.22
2023-02-19T21:09:47.546Z,4.50
2023-02-19T21:12:13.930Z,5.20
2023-02-19T21:14:41.128Z,4.63
2023-02-19T21:17:07.663Z,5.20
2023-02-19T21:19:34.661Z,5.15
2023-02-19T21:22:01.543Z,5.07
2023-02-19T21:24:28.036Z,5.20
2023-02-19T21:26:54.597Z,5.47
2023-02-19T21:29:22.652Z,4.70
2023-02-19T21:31:52.151Z,5.53
2023-02-19T21:34:21.573Z,5.43
2023-02-19T21:36:48.532Z,5.97
2023-02-19T21:39:17.972Z,6.10
2023-02-19T21:41:44.546Z,6.03
2023-02-19T21:44:11.442Z,5.50
2023-02-19T21:46:37.952Z,5.80
2023-02-19T21:49:05.807Z,5.53
2023-02-19T21:51:41.991Z,6.20
2023-02-19T21:54:13.135Z,6.22
2023-02-19T21:56:39.541Z,6.90
2023-02-19T21:59:06.292Z,6.45
2023-02-19T22:01:35.104Z,7.70
2023-02-19T22:04:02.329Z,6.00
2023-02-19T22:06:30.763Z,6.78
2023-02-19T22:08:58.632Z,6.55
2023-02-19T22:11:27.405Z,6.88
2023-02-19T22:13:53.818Z,7.03
2023-02-19T22:16:21.077Z,6.28
2023-02-19T22:18:58.564Z,6.70
2023-02-19T22:21:27.869Z,7.28
2023-02-19T22:23:54.980Z,6.82
2023-02-19T22:26:25.877Z,7.80
2023-02-19T22:28:52.886Z,6.93
2023-02-19T22:31:23.024Z,6.55
2023-02-19T22:33:50.236Z,5.68
2023-02-19T22:36:25.481Z,6.47
2023-02-19T22:38:52.586Z,6.55
2023-02-19T22:41:20.269Z,7.22
2023-02-19T22:43:48.269Z,7.25
2023-02-19T22:46:23.755Z,5.93
2023-02-19T22:48:51.013Z,6.63
2023-02-19T22:51:20.457Z,6.30
2023-02-19T22:53:54.995Z,5.97
2023-02-19T22:56:23.854Z,6.18
2023-02-19T22:58:51.097Z,6.07
2023-02-19T23:01:18.492Z,5.97
2023-02-19T23:03:50.310Z,6.45
2023-02-19T23:06:21.060Z,5.68
2023-02-19T23:08:47.530Z,5.30
2023-02-19T23:11:21.731Z,5.68
2023-02-19T23:13:48.532Z,5.77
2023-02-19T23:16:15.505Z,6.00
2023-02-19T23:18:43.371Z,6.97
2023-02-19T23:21:10.208Z,5.60
2023-02-19T23:23:36.785Z,5.75
2023-02-19T23:26:04.841Z,5.85
2023-02-19T23:28:31.470Z,5.78
2023-02-19T23:30:58.598Z,5.47
2023-02-19T23:33:25.241Z,6.00
2023-02-19T23:35:52.049Z,5.47
2023-02-19T23:38:18.778Z,5.00
2023-02-19T23:40:45.436Z,5.53
2023-02-19T23:43:13.248Z,5.00
2023-02-19T23:45:39.709Z,6.20
2023-02-19T23:48:06.272Z,6.80
2023-02-19T23:50:32.750Z,6.50
2023-02-19T23:52:59.756Z,7.10
2023-02-19T23:55:26.693Z,7.45
2023-02-19T23:57:53.952Z,7.35
